Time;durP1;ratioP1;P1;durP2;ratioP2;P2;SDS_P1;SDS_P2;PMS_P1;PMS_P2;Temp;Humidity;BMP_temperature;BMP_pressure;BME280_temperature;BME280_humidity;BME280_pressure;Samples;Min_cycle;Max_cycle;Signal;HPM_P1;HPM_P2
2024/02/06 00:01:24;;;;;;;9.07;4.20;;;9.30;99.90;;;-141.84;67.01;18686.03;5001403;28;20249;-49
2024/02/06 00:03:51;;;;;;;8.60;4.27;;;9.30;99.90;;;-141.84;67.00;18647.44;5000432;28;20280;-53
2024/02/06 00:06:20;;;;;;;11.30;5.43;;;9.30;99.90;;;-141.84;67.52;18720.59;4999172;28;20723;-53
2024/02/06 00:08:50;;;;;;;8.30;3.97;;;9.30;99.90;;;-141.84;68.42;18732.78;4997247;28;20313;-50
2024/02/06 00:11:19;;;;;;;11.57;4.63;;;9.20;99.90;;;-141.84;67.57;18714.50;5000670;28;20821;-53
2024/02/06 00:13:48;;;;;;;10.40;4.30;;;9.20;99.90;;;-141.84;67.15;18692.13;4998787;28;20280;-54
2024/02/06 00:16:16;;;;;;;9.27;4.53;;;9.20;99.90;;;-141.84;66.82;18696.19;4998744;28;20289;-53
2024/02/06 00:18:44;;;;;;;10.87;4.67;;;9.20;99.90;;;-141.84;67.25;18696.19;4998057;28;20228;-57
2024/02/06 00:21:13;;;;;;;12.47;4.73;;;9.20;99.90;;;-141.84;67.18;18700.25;5000989;28;20227;-55
2024/02/06 00:23:41;;;;;;;11.33;4.80;;;9.20;99.90;;;-141.84;66.25;18671.81;5001608;28;20281;-53
2024/02/06 00:26:11;;;;;;;10.70;4.80;;;9.30;99.90;;;-141.84;66.58;18673.84;5000676;28;20227;-53
2024/02/06 00:28:39;;;;;;;8.90;5.03;;;9.30;99.90;;;-141.84;66.32;18692.13;4990865;28;20179;-60
2024/02/06 00:31:07;;;;;;;9.43;4.60;;;9.30;99.90;;;-141.84;67.00;18663.69;4997517;28;20220;-56
2024/02/06 00:33:36;;;;;;;12.07;4.83;;;9.20;99.90;;;-141.84;67.38;18730.75;4997658;28;20318;-52
2024/02/06 00:36:05;;;;;;;9.37;4.77;;;9.20;99.90;;;-141.84;66.52;18659.63;4997950;28;20227;-53
2024/02/06 00:38:35;;;;;;;9.67;4.63;;;9.20;99.90;;;-141.84;66.72;18677.91;4997882;28;20289;-54
2024/02/06 00:41:04;;;;;;;10.10;4.77;;;9.20;99.90;;;-141.84;67.25;18688.06;4991574;28;20234;-57
2024/02/06 00:43:33;;;;;;;11.87;5.10;;;9.20;99.90;;;-141.84;66.91;18661.66;5001392;28;20202;-54
2024/02/06 00:46:02;;;;;;;10.43;4.73;;;9.20;99.90;;;-141.84;67.15;18692.13;5000303;28;20321;-54
2024/02/06 00:48:30;;;;;;;9.20;5.10;;;9.20;99.90;;;-141.84;67.03;18679.94;4997802;28;20229;-52
2024/02/06 00:50:58;;;;;;;14.10;4.90;;;9.20;99.90;;;-141.84;67.33;18669.78;4997577;28;20230;-52
2024/02/06 00:53:27;;;;;;;11.47;4.97;;;9.20;99.90;;;-141.84;67.40;18686.03;4997732;28;20230;-55
2024/02/06 00:55:55;;;;;;;11.23;5.07;;;9.20;99.90;;;-141.84;67.76;18684.00;4999969;28;21015;-55
2024/02/06 00:58:23;;;;;;;9.07;4.93;;;9.10;99.90;;;-141.84;68.16;18736.84;5000884;28;20252;-57
2024/02/06 01:00:53;;;;;;;10.47;5.07;;;9.10;99.90;;;-141.84;67.56;18702.28;4999826;28;20731;-57
2024/02/06 01:03:21;;;;;;;10.87;5.17;;;9.10;99.90;;;-141.84;68.13;18708.41;4989769;28;20223;-54
2024/02/06 01:05:49;;;;;;;11.03;5.50;;;9.10;99.90;;;-141.84;67.45;18710.44;4997662;28;20281;-53
2024/02/06 01:08:19;;;;;;;8.43;5.37;;;9.10;99.90;;;-141.84;67.43;18700.25;4997530;28;20254;-54
2024/02/06 01:10:47;;;;;;;7.77;5.00;;;9.10;99.90;;;-141.84;67.05;18686.03;5000886;28;20227;-53
2024/02/06 01:13:15;;;;;;;8.20;5.03;;;9.10;99.90;;;-141.84;66.96;18684.00;5000223;28;20295;-54
2024/02/06 01:15:44;;;;;;;9.23;5.23;;;9.10;99.90;;;-141.84;67.44;18696.19;4998907;28;20227;-55
2024/02/06 01:18:13;;;;;;;11.77;5.70;;;9.10;99.90;;;-141.84;67.03;18661.66;4997327;28;20431;-52
2024/02/06 01:20:42;;;;;;;12.23;5.23;;;9.10;99.90;;;-141.84;67.25;18686.03;4997441;28;20215;-52
2024/02/06 01:23:10;;;;;;;14.50;5.40;;;9.10;99.90;;;-141.84;67.62;18700.25;4999236;28;20316;-54
2024/02/06 01:25:38;;;;;;;10.60;5.30;;;9.00;99.90;;;-141.84;67.48;18704.31;5000598;28;20607;-56
2024/02/06 01:28:07;;;;;;;11.10;5.70;;;9.00;99.90;;;-141.84;66.75;18708.41;4999509;28;20261;-54
2024/02/06 01:30:35;;;;;;;13.30;5.50;;;9.10;99.90;;;-141.84;66.56;18661.66;4997527;28;20262;-56
2024/02/06 01:33:04;;;;;;;12.27;5.40;;;9.20;99.90;;;-141.84;66.91;18671.81;4997721;28;20664;-54
2024/02/06 01:35:34;;;;;;;12.53;5.90;;;9.10;99.90;;;-141.84;66.94;18690.09;4997746;28;20670;-54
2024/02/06 01:38:02;;;;;;;12.07;5.63;;;9.10;99.90;;;-141.84;67.73;18692.13;4989872;28;20303;-50
2024/02/06 01:40:30;;;;;;;11.17;5.83;;;9.00;99.90;;;-141.84;66.68;18669.78;4997249;28;20253;-51
2024/02/06 01:42:58;;;;;;;11.30;5.63;;;9.10;99.90;;;-141.84;67.73;18718.56;4997791;28;20223;-55
2024/02/06 01:45:27;;;;;;;10.03;5.23;;;9.10;99.90;;;-141.84;67.37;18671.81;5000362;28;20219;-53
2024/02/06 01:47:55;;;;;;;12.57;5.60;;;9.10;99.90;;;-141.84;67.32;18706.38;5003668;28;20258;-53
2024/02/06 01:50:24;;;;;;;9.20;5.57;;;9.10;99.90;;;-141.84;67.73;18716.53;5002375;28;20222;-50
2024/02/06 01:52:56;;;;;;;10.60;5.50;;;9.00;99.90;;;-141.84;67.54;18684.00;5001032;28;20273;-52
2024/02/06 01:55:24;;;;;;;8.77;5.67;;;9.00;99.90;;;-141.84;67.01;18671.81;5001516;28;20191;-51
2024/02/06 01:57:53;;;;;;;14.47;5.77;;;9.00;99.90;;;-141.84;67.25;18686.03;5002177;28;20263;-52
2024/02/06 02:00:21;;;;;;;13.70;5.47;;;9.00;99.90;;;-141.84;66.38;18653.53;5003004;28;20222;-56
2024/02/06 02:02:50;;;;;;;12.73;5.77;;;9.10;99.90;;;-141.84;66.71;18684.00;5002900;28;20226;-53
2024/02/06 02:05:18;;;;;;;11.97;5.57;;;9.10;99.90;;;-141.84;66.26;18669.78;5000593;28;20246;-53
2024/02/06 02:07:47;;;;;;;10.80;5.80;;;9.10;99.90;;;-141.84;66.96;18653.53;5001011;28;20217;-54
2024/02/06 02:10:17;;;;;;;9.17;5.30;;;9.10;99.90;;;-141.84;67.42;18671.81;4999229;28;20244;-55
2024/02/06 02:12:45;;;;;;;13.43;5.30;;;9.00;99.90;;;-141.84;66.96;18677.91;4999871;28;20276;-55
2024/02/06 02:15:14;;;;;;;10.47;4.97;;;9.00;99.90;;;-141.84;67.20;18677.91;5002783;28;20306;-54
2024/02/06 02:17:43;;;;;;;9.20;5.57;;;9.00;99.90;;;-141.84;67.43;18698.22;5002211;28;20326;-53
2024/02/06 02:20:12;;;;;;;15.23;5.30;;;9.00;99.90;;;-141.84;66.67;18659.63;5000357;28;20311;-55
2024/02/06 02:22:42;;;;;;;12.07;5.50;;;9.00;99.90;;;-141.84;66.49;18655.56;4999460;28;20191;-55
2024/02/06 02:25:10;;;;;;;12.63;5.30;;;9.00;99.90;;;-141.84;66.73;18684.00;5000840;28;20219;-56
2024/02/06 02:27:39;;;;;;;11.97;5.23;;;9.00;99.90;;;-141.84;66.77;18659.63;5000643;28;20243;-54
2024/02/06 02:30:09;;;;;;;10.03;5.60;;;9.00;99.90;;;-141.84;66.98;18702.28;5000043;28;20219;-54
2024/02/06 02:32:38;;;;;;;9.37;4.70;;;9.00;99.90;;;-141.84;67.84;18740.91;5001862;28;20725;-52
2024/02/06 02:35:06;;;;;;;9.57;5.27;;;8.90;99.90;;;-141.84;67.26;18657.59;4996958;28;20231;-56
2024/02/06 02:37:35;;;;;;;10.67;5.40;;;8.90;99.90;;;-141.84;67.21;18671.81;5003223;28;20195;-53
2024/02/06 02:40:06;;;;;;;9.80;5.00;;;8.90;99.90;;;-141.84;67.19;18667.75;4991490;28;20226;-55
2024/02/06 02:42:35;;;;;;;8.77;4.90;;;8.90;99.90;;;-141.84;66.92;18627.13;4999545;28;20391;-58
2024/02/06 02:45:03;;;;;;;10.97;5.30;;;9.00;99.90;;;-141.84;67.20;18704.31;4999793;28;20772;-55
2024/02/06 02:47:32;;;;;;;10.30;5.07;;;8.90;99.90;;;-141.84;66.87;18686.03;5002317;28;20647;-55
2024/02/06 02:50:00;;;;;;;10.97;5.47;;;8.90;99.90;;;-141.84;66.54;18681.97;5002152;28;20199;-55
2024/02/06 02:52:28;;;;;;;11.20;4.73;;;9.00;99.90;;;-141.84;66.01;18647.44;5001601;28;20219;-52
2024/02/06 02:54:57;;;;;;;12.83;4.63;;;9.10;99.90;;;-141.84;66.19;18631.19;4999460;28;20225;-52
2024/02/06 02:57:26;;;;;;;16.57;5.00;;;9.00;99.90;;;-141.84;68.12;18694.16;4998557;28;20701;-53
2024/02/06 02:59:55;;;;;;;10.50;5.17;;;8.90;99.90;;;-141.84;66.93;18635.25;5001209;28;20321;-54
2024/02/06 03:02:23;;;;;;;7.50;4.73;;;9.00;99.90;;;-141.84;66.76;18679.94;5002094;28;20245;-52
2024/02/06 03:04:52;;;;;;;7.27;4.33;;;9.00;99.90;;;-141.84;67.00;18669.78;4994812;28;20195;-52
2024/02/06 03:07:20;;;;;;;10.30;4.30;;;8.90;99.90;;;-141.84;65.81;18681.97;5002439;28;20204;-64
2024/02/06 03:09:49;;;;;;;9.97;4.37;;;9.00;99.90;;;-141.84;66.58;18677.91;4998443;28;20222;-64
2024/02/06 03:12:17;;;;;;;8.13;4.60;;;8.90;99.90;;;-141.84;66.64;18679.94;5002831;28;20258;-64
2024/02/06 03:14:47;;;;;;;9.70;4.17;;;8.90;99.90;;;-141.84;66.64;18675.88;4992332;28;20345;-63
2024/02/06 03:17:15;;;;;;;9.50;4.37;;;9.00;99.90;;;-141.84;67.45;18669.78;5000053;28;20474;-64
2024/02/06 03:19:43;;;;;;;7.43;4.33;;;8.90;99.90;;;-141.84;66.10;18661.66;5000256;28;20196;-64
2024/02/06 03:22:11;;;;;;;9.00;4.20;;;8.90;99.90;;;-141.84;65.88;18645.41;5001795;28;20301;-64
2024/02/06 03:24:40;;;;;;;8.17;4.27;;;8.90;99.90;;;-141.84;66.17;18663.69;5001795;28;20222;-64
2024/02/06 03:27:08;;;;;;;8.57;4.33;;;9.00;99.90;;;-141.84;66.38;18663.69;5000683;28;20266;-64
2024/02/06 03:29:36;;;;;;;8.47;4.10;;;9.00;99.90;;;-141.84;66.21;18647.44;4999203;28;20224;-64
2024/02/06 03:32:07;;;;;;;7.90;3.87;;;8.90;99.90;;;-141.84;66.87;18627.13;5001428;28;20643;-64
2024/02/06 03:34:35;;;;;;;8.80;3.97;;;9.00;99.90;;;-141.84;67.01;18665.72;5001775;28;20275;-64
2024/02/06 03:37:04;;;;;;;10.83;4.77;;;8.90;99.90;;;-141.84;67.10;18657.59;5001192;28;20227;-63
2024/02/06 03:39:32;;;;;;;8.83;3.87;;;8.90;99.90;;;-141.84;67.45;18686.03;5001447;28;20226;-63
2024/02/06 03:42:01;;;;;;;9.77;3.73;;;8.90;99.90;;;-141.84;66.99;18700.25;4998933;28;20222;-64
2024/02/06 03:44:29;;;;;;;7.50;3.63;;;8.90;99.90;;;-141.84;66.95;18643.38;5003673;28;20246;-64
2024/02/06 03:46:57;;;;;;;5.53;3.70;;;8.90;99.90;;;-141.84;66.84;18637.28;5000948;28;20714;-64
2024/02/06 03:49:27;;;;;;;8.40;3.47;;;9.00;99.90;;;-141.84;67.30;18684.00;4998973;28;20748;-63
2024/02/06 03:51:56;;;;;;;5.60;3.03;;;8.90;99.90;;;-141.84;66.93;18679.94;4998462;28;20227;-65
2024/02/06 03:54:24;;;;;;;5.17;3.00;;;8.90;99.90;;;-141.84;67.12;18663.69;4998459;28;20235;-63
2024/02/06 03:56:53;;;;;;;10.07;4.07;;;9.00;99.90;;;-141.84;66.89;18708.41;5001077;28;20226;-64
2024/02/06 03:59:21;;;;;;;6.67;3.47;;;9.00;99.90;;;-141.84;66.96;18671.81;5000710;28;20308;-64
2024/02/06 04:01:49;;;;;;;4.30;3.07;;;8.90;99.90;;;-141.84;66.89;18708.41;4999692;28;20242;-63
2024/02/06 04:04:18;;;;;;;6.83;3.20;;;9.00;99.90;;;-141.84;67.66;18710.44;4998829;28;20283;-63
2024/02/06 04:06:48;;;;;;;8.03;2.90;;;8.90;99.90;;;-141.84;67.13;18684.00;4997901;28;20234;-64
2024/02/06 04:09:16;;;;;;;8.47;3.33;;;8.90;99.90;;;-141.84;66.42;18649.47;4999552;28;20223;-63
2024/02/06 04:11:44;;;;;;;11.03;3.10;;;9.00;99.90;;;-141.84;67.17;18702.28;5003367;28;20223;-63
2024/02/06 04:14:12;;;;;;;8.90;3.40;;;9.00;99.90;;;-141.84;67.42;18681.97;4998291;28;20309;-64
2024/02/06 04:16:41;;;;;;;8.60;3.30;;;9.00;99.90;;;-141.84;67.97;18718.56;5000255;28;20241;-64
2024/02/06 04:19:09;;;;;;;6.87;2.97;;;9.00;99.90;;;-141.84;67.96;18728.72;5000481;28;20259;-63
2024/02/06 04:21:38;;;;;;;4.17;2.80;;;9.00;99.90;;;-141.84;68.52;18708.41;4993168;28;20227;-64
2024/02/06 04:24:09;;;;;;;6.67;3.00;;;8.90;99.90;;;-141.84;67.07;18692.13;5000118;28;20732;-64
2024/02/06 04:26:38;;;;;;;6.40;3.40;;;9.00;99.90;;;-141.84;67.47;18722.63;4995357;28;20290;-64
2024/02/06 04:29:06;;;;;;;5.23;2.50;;;9.10;99.90;;;-141.84;68.18;18704.31;5001920;28;20203;-64
2024/02/06 04:31:35;;;;;;;6.73;2.83;;;9.00;99.90;;;-141.84;68.12;18696.19;4991650;28;20200;-64
2024/02/06 04:34:03;;;;;;;4.57;3.07;;;9.00;99.90;;;-141.84;68.35;18751.06;4989937;28;20315;-63
2024/02/06 04:36:33;;;;;;;9.10;3.60;;;9.00;99.90;;;-141.84;68.41;18736.84;4998889;28;20231;-64
2024/02/06 04:39:01;;;;;;;7.00;2.80;;;9.10;99.90;;;-141.84;68.48;18744.97;5000979;28;20219;-64
2024/02/06 04:41:30;;;;;;;9.93;3.00;;;9.00;99.90;;;-141.84;68.83;18728.72;5000012;28;20219;-62
2024/02/06 04:43:59;;;;;;;6.03;2.90;;;9.00;99.90;;;-141.84;69.07;18781.53;5000432;28;20261;-63
2024/02/06 04:46:27;;;;;;;4.90;2.73;;;9.00;99.90;;;-141.84;68.36;18751.06;5000915;28;20230;-64
2024/02/06 04:48:55;;;;;;;4.37;2.70;;;9.00;99.90;;;-141.84;68.92;18722.63;4999974;28;20253;-66
2024/02/06 04:51:25;;;;;;;8.57;3.10;;;9.00;99.90;;;-141.84;69.51;18777.47;4997908;28;20317;-64
2024/02/06 04:53:53;;;;;;;7.27;2.90;;;9.00;99.90;;;-141.84;69.15;18797.78;4997401;28;20262;-65
2024/02/06 04:56:22;;;;;;;6.67;2.93;;;9.00;99.90;;;-141.84;69.25;18757.16;4997498;28;20233;-64
2024/02/06 04:58:52;;;;;;;8.03;2.90;;;8.90;99.90;;;-141.84;69.86;18791.69;4997603;28;20268;-63
2024/02/06 05:01:21;;;;;;;7.63;3.87;;;8.90;99.90;;;-141.84;70.29;18858.75;4998093;28;20192;-64
2024/02/06 05:03:49;;;;;;;3.57;2.50;;;8.90;99.90;;;-141.84;70.49;18860.78;4997557;28;20685;-63
2024/02/06 05:06:17;;;;;;;4.03;2.43;;;8.90;99.90;;;-141.84;70.17;18763.25;5000111;28;20218;-63
2024/02/06 05:08:46;;;;;;;6.20;3.10;;;8.90;99.90;;;-141.84;70.07;18856.72;4998105;28;20218;-63
2024/02/06 05:11:14;;;;;;;3.10;2.40;;;9.00;99.90;;;-141.84;70.89;18864.84;5004920;28;20317;-65
2024/02/06 05:13:44;;;;;;;4.67;2.70;;;8.90;99.90;;;-141.84;70.39;18842.50;5001518;28;20214;-65
2024/02/06 05:16:16;;;;;;;5.37;2.80;;;9.00;99.90;;;-141.84;71.65;18958.31;4999608;28;20229;-64
2024/02/06 05:18:45;;;;;;;5.97;2.70;;;8.90;99.90;;;-141.84;71.15;18901.41;4999526;28;20223;-63
2024/02/06 05:21:13;;;;;;;4.47;2.73;;;9.00;99.90;;;-141.84;70.89;18883.13;5001451;28;20218;-62
2024/02/06 05:23:42;;;;;;;6.47;3.10;;;9.00;99.90;;;-141.84;71.49;18946.13;5002966;28;20226;-62
2024/02/06 05:26:10;;;;;;;5.00;2.63;;;9.00;99.90;;;-141.84;72.04;18994.88;5010031;28;20288;-63
2024/02/06 05:28:38;;;;;;;5.23;2.90;;;8.90;99.90;;;-141.84;71.10;18911.56;5002674;28;20196;-64
2024/02/06 05:31:07;;;;;;;8.27;3.30;;;9.00;99.90;;;-141.84;72.30;19031.47;5001482;28;20643;-65
2024/02/06 05:33:36;;;;;;;6.57;3.10;;;8.90;99.90;;;-141.84;71.68;18970.50;4992861;28;20237;-63
2024/02/06 05:36:05;;;;;;;6.83;3.07;;;8.90;99.90;;;-141.84;71.99;18978.63;5001677;28;20265;-64
2024/02/06 05:38:33;;;;;;;6.37;2.97;;;8.90;99.90;;;-141.84;71.90;18972.53;5001637;28;20341;-64
2024/02/06 05:41:01;;;;;;;5.13;2.80;;;8.90;99.90;;;-141.84;71.48;18889.22;5003342;28;20760;-64
2024/02/06 05:43:30;;;;;;;9.80;2.87;;;8.90;99.90;;;-141.84;71.33;18927.84;5004370;28;20589;-63
2024/02/06 05:45:58;;;;;;;6.93;3.03;;;8.90;99.90;;;-141.84;70.86;18891.25;5002603;28;20738;-63
2024/02/06 05:48:26;;;;;;;7.10;3.00;;;9.00;99.90;;;-141.84;70.80;18842.50;5001601;28;20421;-63
2024/02/06 05:50:56;;;;;;;4.33;2.50;;;9.00;99.90;;;-141.84;70.97;18879.06;5001212;28;20686;-63
2024/02/06 05:53:24;;;;;;;8.30;3.07;;;9.00;99.90;;;-141.84;70.50;18848.59;5001916;28;20306;-63
2024/02/06 05:55:52;;;;;;;7.87;2.90;;;9.00;99.90;;;-141.84;69.78;18797.78;5003540;28;20235;-64
2024/02/06 05:58:21;;;;;;;7.17;3.43;;;9.00;99.90;;;-141.84;69.49;18807.94;5004155;28;20209;-64
2024/02/06 06:00:50;;;;;;;7.47;3.30;;;9.10;99.90;;;-141.84;70.74;18846.56;5001344;28;20226;-63
2024/02/06 06:03:19;;;;;;;6.57;2.77;;;9.00;99.90;;;-141.84;70.63;18856.72;5000575;28;20215;-63
2024/02/06 06:05:47;;;;;;;6.93;3.23;;;9.00;99.90;;;-141.84;69.22;18755.13;5001167;28;20235;-63
2024/02/06 06:08:18;;;;;;;6.73;2.80;;;9.10;99.90;;;-141.84;70.04;18789.66;5009158;28;20230;-65
2024/02/06 06:10:46;;;;;;;6.47;2.77;;;9.10;99.90;;;-141.84;69.65;18789.66;5008128;28;20195;-64
2024/02/06 06:13:15;;;;;;;9.77;4.97;;;9.10;99.90;;;-141.84;69.02;18765.28;5002832;28;20258;-64
2024/02/06 06:15:43;;;;;;;6.00;3.47;;;9.10;99.90;;;-141.84;69.34;18775.44;4992393;28;20227;-63
2024/02/06 06:18:11;;;;;;;7.47;3.60;;;9.10;99.90;;;-141.84;69.56;18742.94;5000652;28;20231;-63
2024/02/06 06:20:41;;;;;;;6.57;3.43;;;9.10;99.90;;;-141.84;69.09;18751.06;5004287;28;20227;-64
2024/02/06 06:23:09;;;;;;;6.87;3.27;;;9.00;99.90;;;-141.84;69.29;18753.09;5003037;28;20756;-64
2024/02/06 06:25:39;;;;;;;7.57;3.27;;;9.10;99.90;;;-141.84;69.13;18767.31;5003295;28;20238;-63
2024/02/06 06:28:08;;;;;;;4.70;2.80;;;9.10;99.90;;;-141.84;68.78;18744.97;5000742;28;20329;-63
2024/02/06 06:30:36;;;;;;;6.33;3.17;;;9.20;99.90;;;-141.84;68.87;18753.09;5000425;28;20326;-64
2024/02/06 06:33:05;;;;;;;6.40;3.03;;;9.10;99.90;;;-141.84;68.09;18724.66;4999900;28;20265;-63
2024/02/06 06:35:34;;;;;;;6.43;2.77;;;9.10;99.90;;;-141.84;68.00;18732.78;5003060;28;20273;-63
2024/02/06 06:38:02;;;;;;;5.83;2.83;;;9.10;99.90;;;-141.84;67.86;18722.63;5003040;28;20331;-64
2024/02/06 06:40:30;;;;;;;5.17;2.70;;;9.20;99.90;;;-141.84;67.38;18679.94;4998741;28;20653;-64
2024/02/06 06:43:00;;;;;;;5.03;2.70;;;9.20;99.90;;;-141.84;67.51;18712.47;4999944;28;20455;-64
2024/02/06 06:45:28;;;;;;;4.87;2.30;;;9.20;99.90;;;-141.84;68.22;18686.03;4999715;28;20599;-64
2024/02/06 06:47:57;;;;;;;4.93;2.67;;;9.20;99.90;;;-141.84;67.77;18688.06;5000196;28;20231;-63
2024/02/06 06:50:25;;;;;;;5.60;2.50;;;9.20;99.90;;;-141.84;67.33;18690.09;4999330;28;20770;-64
2024/02/06 06:52:54;;;;;;;4.47;2.43;;;9.20;99.90;;;-141.84;67.92;18736.84;4999739;28;20662;-62
2024/02/06 06:55:22;;;;;;;5.37;2.17;;;9.20;99.90;;;-141.84;68.11;18714.50;5000729;28;20223;-63
2024/02/06 06:57:50;;;;;;;4.77;2.70;;;9.20;99.90;;;-141.84;67.19;18698.22;5001927;28;20562;-63
2024/02/06 07:00:20;;;;;;;3.70;2.60;;;9.20;99.90;;;-141.84;67.33;18669.78;5001876;28;20222;-63
2024/02/06 07:02:49;;;;;;;5.13;2.60;;;9.20;99.90;;;-141.84;66.56;18688.06;5000267;28;20226;-64
2024/02/06 07:05:22;;;;;;;4.63;2.27;;;9.30;99.90;;;-141.84;67.12;18712.47;4999899;28;20227;-64
2024/02/06 07:07:51;;;;;;;4.63;2.23;;;9.30;99.90;;;-141.84;66.79;18698.22;4999214;28;20673;-63
2024/02/06 07:10:19;;;;;;;4.87;2.60;;;9.30;99.90;;;-141.84;66.91;18684.00;5007514;28;20231;-64
2024/02/06 07:12:47;;;;;;;3.53;2.37;;;9.30;99.90;;;-141.84;66.27;18690.09;5001747;28;20241;-64
2024/02/06 07:15:16;;;;;;;8.33;2.70;;;9.30;99.90;;;-141.84;66.42;18694.16;5001196;28;20292;-64
2024/02/06 07:17:45;;;;;;;4.47;2.37;;;9.30;99.90;;;-141.84;66.78;18679.94;4994793;28;20246;-64
2024/02/06 07:20:14;;;;;;;5.27;2.33;;;9.30;99.90;;;-141.84;66.18;18690.09;5001212;28;20720;-64
2024/02/06 07:22:42;;;;;;;7.50;2.50;;;9.40;99.90;;;-141.84;66.15;18661.66;5001311;28;20198;-64
2024/02/06 07:25:11;;;;;;;4.97;2.00;;;9.40;99.90;;;-141.84;66.07;18663.69;4999296;28;20211;-63
2024/02/06 07:27:39;;;;;;;5.40;2.30;;;9.40;99.90;;;-141.84;65.76;18643.38;4997181;28;20265;-63
2024/02/06 07:30:08;;;;;;;6.63;2.17;;;9.40;99.90;;;-141.84;65.83;18643.38;4999997;28;20284;-65
2024/02/06 07:32:36;;;;;;;3.63;2.30;;;9.40;99.90;;;-141.84;65.76;18671.81;4999205;28;20282;-64
2024/02/06 07:35:12;;;;;;;5.17;2.20;;;9.40;99.90;;;-141.84;65.28;18684.00;4999757;28;20286;-63
2024/02/06 07:37:40;;;;;;;4.27;2.20;;;9.50;99.90;;;-141.84;65.86;18702.28;4991662;28;20240;-64
2024/02/06 07:40:10;;;;;;;3.97;2.33;;;9.50;99.90;;;-141.84;65.74;18667.75;4998659;28;20223;-64
2024/02/06 07:42:38;;;;;;;7.47;2.30;;;9.50;99.90;;;-141.84;64.76;18679.94;4998695;28;20222;-63
2024/02/06 07:45:08;;;;;;;4.43;2.50;;;9.50;99.90;;;-141.84;64.87;18667.75;5000377;28;20731;-64
2024/02/06 07:47:36;;;;;;;4.80;1.97;;;9.50;99.90;;;-141.84;65.49;18629.16;5000974;28;20227;-63
2024/02/06 07:50:05;;;;;;;4.37;2.23;;;9.50;99.90;;;-141.84;65.13;18667.75;4992521;28;20542;-64
2024/02/06 07:52:35;;;;;;;5.03;2.10;;;9.60;99.90;;;-141.84;65.51;18663.69;5001757;28;20199;-63
2024/02/06 07:55:04;;;;;;;4.77;2.27;;;9.60;99.90;;;-141.84;64.60;18657.59;4994699;28;20310;-63
2024/02/06 07:57:32;;;;;;;6.10;2.40;;;9.60;99.90;;;-141.84;64.78;18623.06;5000642;28;20266;-64
2024/02/06 08:00:00;;;;;;;4.87;2.47;;;9.60;99.90;;;-141.84;64.68;18673.84;5001458;28;20226;-64
2024/02/06 08:02:28;;;;;;;5.80;2.33;;;9.70;99.90;;;-141.84;64.61;18696.19;5001361;28;20696;-64
2024/02/06 08:04:56;;;;;;;5.30;1.97;;;9.70;99.90;;;-141.84;65.03;18661.66;4998690;28;20640;-65
2024/02/06 08:07:27;;;;;;;7.67;2.07;;;9.70;99.90;;;-141.84;65.23;18686.03;4998888;28;20191;-65
2024/02/06 08:09:57;;;;;;;5.80;2.37;;;9.60;99.90;;;-141.84;65.39;18655.56;5003261;28;20237;-65
2024/02/06 08:12:27;;;;;;;2.63;1.70;;;9.70;99.90;;;-141.84;64.96;18671.81;4982041;28;20230;-64
2024/02/06 08:14:55;;;;;;;4.73;2.10;;;9.70;99.90;;;-141.84;65.65;18667.75;5001463;28;20231;-65
2024/02/06 08:17:23;;;;;;;5.17;2.20;;;9.60;99.90;;;-141.84;65.53;18696.19;4998703;28;20249;-63
2024/02/06 08:19:52;;;;;;;4.90;2.27;;;9.60;99.90;;;-141.84;64.69;18659.63;5005298;28;20200;-63
2024/02/06 08:22:20;;;;;;;6.87;1.80;;;9.70;99.90;;;-141.84;64.88;18657.59;5005469;28;20195;-64
2024/02/06 08:24:49;;;;;;;5.13;2.17;;;9.80;99.90;;;-141.84;65.23;18716.53;4999356;28;20229;-64
2024/02/06 08:27:18;;;;;;;5.30;2.27;;;9.70;99.90;;;-141.84;65.25;18661.66;4997676;28;20238;-64
2024/02/06 08:29:47;;;;;;;6.10;2.37;;;9.80;99.90;;;-141.84;64.83;18651.50;4998209;28;20293;-64
2024/02/06 08:32:15;;;;;;;7.07;2.50;;;9.80;99.90;;;-141.84;64.69;18675.88;4999815;28;20222;-63
2024/02/06 08:34:43;;;;;;;4.50;2.03;;;9.80;99.90;;;-141.84;64.06;18686.03;5001325;28;20214;-63
2024/02/06 08:37:12;;;;;;;4.23;2.00;;;10.00;99.90;;;-141.84;63.99;18688.06;5002026;28;20230;-64
2024/02/06 08:39:40;;;;;;;6.73;2.20;;;10.00;99.90;;;-141.84;64.27;18667.75;4999911;28;20296;-64
2024/02/06 08:42:09;;;;;;;3.90;2.40;;;10.00;99.90;;;-141.84;63.59;18712.47;4998303;28;20487;-63
2024/02/06 08:44:39;;;;;;;2.97;1.97;;;10.10;99.90;;;-141.84;64.15;18673.84;4997994;28;20224;-63
2024/02/06 08:47:07;;;;;;;4.77;2.60;;;10.00;99.90;;;-141.84;64.23;18684.00;4990178;28;20203;-63
2024/02/06 08:49:36;;;;;;;3.73;2.40;;;10.00;99.90;;;-141.84;63.97;18677.91;4998154;28;20254;-64
2024/02/06 08:52:05;;;;;;;3.77;2.60;;;10.10;99.90;;;-141.84;63.71;18686.03;4997905;28;20739;-64
2024/02/06 08:54:34;;;;;;;5.50;2.00;;;10.10;99.90;;;-141.84;63.89;18669.78;5000523;28;20218;-63
2024/02/06 08:57:02;;;;;;;4.77;1.67;;;10.10;99.90;;;-141.84;64.27;18692.13;4996211;28;20297;-63
2024/02/06 08:59:31;;;;;;;2.97;1.60;;;10.10;99.90;;;-141.84;64.88;18673.84;5002656;28;20688;-63
2024/02/06 09:02:02;;;;;;;6.30;1.67;;;10.10;99.90;;;-141.84;64.27;18684.00;5008720;28;20253;-63
2024/02/06 09:04:31;;;;;;;2.67;1.47;;;10.20;99.90;;;-141.84;63.62;18686.03;5002261;28;20544;-64
2024/02/06 09:07:00;;;;;;;2.27;1.47;;;10.20;99.90;;;-141.84;64.08;18663.69;5003867;28;20318;-64
2024/02/06 09:09:28;;;;;;;2.50;1.40;;;10.20;99.90;;;-141.84;64.66;18696.19;5003395;28;20222;-64
2024/02/06 09:11:57;;;;;;;4.03;1.67;;;10.10;99.90;;;-141.84;64.21;18671.81;5004356;28;20223;-64
2024/02/06 09:14:25;;;;;;;3.63;1.53;;;10.20;99.90;;;-141.84;64.37;18704.31;5004620;28;20235;-65
2024/02/06 09:16:54;;;;;;;3.37;1.90;;;10.20;99.90;;;-141.84;64.28;18718.56;5004464;28;20608;-64
2024/02/06 09:19:24;;;;;;;3.00;1.47;;;10.10;99.90;;;-141.84;64.28;18700.25;5005143;28;20273;-64
2024/02/06 09:21:52;;;;;;;3.17;1.50;;;10.20;99.90;;;-141.84;64.46;18690.09;5003988;28;20222;-64
2024/02/06 09:24:20;;;;;;;2.57;1.30;;;10.20;99.90;;;-141.84;64.77;18686.03;5006857;28;20266;-63
2024/02/06 09:26:51;;;;;;;3.73;1.53;;;10.20;99.90;;;-141.84;65.55;18661.66;5010019;28;20252;-65
2024/02/06 09:29:19;;;;;;;2.10;1.40;;;10.10;99.90;;;-141.84;65.27;18679.94;5003812;28;20250;-64
2024/02/06 09:31:48;;;;;;;4.13;1.37;;;10.10;99.90;;;-141.84;64.78;18704.31;5004373;28;20238;-64
2024/02/06 09:34:16;;;;;;;3.30;1.60;;;10.10;99.90;;;-141.84;65.03;18708.41;5001908;28;20227;-64
2024/02/06 09:36:46;;;;;;;3.67;1.50;;;10.10;99.90;;;-141.84;64.79;18702.28;5000771;28;20309;-65
2024/02/06 09:39:14;;;;;;;2.90;1.50;;;10.20;99.90;;;-141.84;63.75;18696.19;5000758;28;20282;-62
2024/02/06 09:41:46;;;;;;;2.43;1.40;;;10.30;99.90;;;-141.84;64.09;18712.47;5006146;28;20230;-63
2024/02/06 09:44:15;;;;;;;2.17;1.30;;;10.30;99.90;;;-141.84;63.10;18716.53;4998911;28;20604;-64
2024/02/06 09:46:46;;;;;;;2.70;1.30;;;10.40;99.90;;;-141.84;63.56;18694.16;4995466;28;20199;-64
2024/02/06 09:49:14;;;;;;;3.67;1.70;;;10.30;99.90;;;-141.84;63.21;18690.09;5003806;28;20568;-64
2024/02/06 09:51:43;;;;;;;5.37;1.93;;;10.50;99.90;;;-141.84;62.32;18688.06;5003101;28;20727;-65
2024/02/06 09:54:17;;;;;;;3.57;1.60;;;10.50;99.90;;;-141.84;62.76;18698.22;5002031;28;20353;-63
2024/02/06 09:56:47;;;;;;;3.20;1.80;;;10.60;99.90;;;-141.84;62.05;18700.25;5005796;28;20300;-64
2024/02/06 09:59:17;;;;;;;2.43;1.50;;;10.60;99.90;;;-141.84;61.89;18694.16;5004563;28;20249;-64
2024/02/06 10:01:47;;;;;;;3.10;1.73;;;10.70;99.90;;;-141.84;61.74;18720.59;4993538;28;20206;-64
2024/02/06 10:04:20;;;;;;;3.27;1.60;;;10.80;99.90;;;-141.84;60.98;18710.44;5000971;28;20215;-63
2024/02/06 10:06:49;;;;;;;2.37;1.30;;;10.80;99.90;;;-141.84;60.55;18702.28;5005204;28;20306;-63
2024/02/06 10:09:22;;;;;;;4.40;1.60;;;10.90;99.90;;;-141.84;60.58;18734.81;5002803;28;20226;-66
2024/02/06 10:11:58;;;;;;;4.17;1.87;;;10.90;99.90;;;-141.84;60.46;18692.13;4994518;28;20278;-66
2024/02/06 10:14:27;;;;;;;3.93;1.67;;;11.00;99.90;;;-141.84;59.86;18714.50;4993090;28;20294;-64
2024/02/06 10:16:56;;;;;;;2.47;1.40;;;11.00;99.90;;;-141.84;60.28;18696.19;5000207;28;20637;-65